Time;durP1;ratioP1;P1;durP2;ratioP2;P2;SDS_P1;SDS_P2;PMS_P1;PMS_P2;Temp;Humidity;BMP_temperature;BMP_pressure;BME280_temperature;BME280_humidity;BME280_pressure;Samples;Min_cycle;Max_cycle;Signal;HPM_P1;HPM_P2
2021/04/21 00:01:43;;;;;;;18.10;15.93;;;15.20;94.10;;;15.76;46.11;101134.50;4882586;28;99221;-52
2021/04/21 00:04:12;;;;;;;18.13;16.23;;;15.20;93.90;;;15.80;46.36;101139.69;4881765;28;99746;-53
2021/04/21 00:06:41;;;;;;;23.80;21.20;;;15.20;93.50;;;15.76;46.35;101144.28;4886072;28;97328;-55
2021/04/21 00:09:15;;;;;;;26.07;23.37;;;15.10;94.10;;;15.72;46.69;101148.03;4902235;28;97762;-57
2021/04/21 00:11:42;;;;;;;20.87;18.73;;;15.00;94.40;;;15.62;46.60;101144.97;4884106;28;97786;-55
2021/04/21 00:14:10;;;;;;;24.73;22.10;;;14.80;94.90;;;15.59;46.91;101136.22;4899338;28;99694;-57
2021/04/21 00:16:38;;;;;;;29.60;26.17;;;14.80;95.10;;;15.59;46.77;101137.13;4888109;28;97433;-55
2021/04/21 00:19:05;;;;;;;15.67;14.17;;;14.80;94.80;;;15.52;46.77;101141.00;4898742;28;99961;-56
2021/04/21 00:21:33;;;;;;;11.93;10.73;;;14.70;95.10;;;15.56;46.73;101150.53;4881586;28;99292;-53
2021/04/21 00:24:03;;;;;;;28.13;24.43;;;14.90;94.80;;;15.57;46.99;101149.59;4881535;28;97732;-59
2021/04/21 00:26:30;;;;;;;29.53;25.90;;;14.90;94.70;;;15.53;47.14;101142.72;4901096;28;99378;-56
2021/04/21 00:28:56;;;;;;;27.37;23.83;;;14.80;94.70;;;15.51;47.23;101144.59;4868404;28;98227;-54
2021/04/21 00:31:23;;;;;;;27.73;24.87;;;14.80;95.00;;;15.50;47.35;101145.53;4895965;28;98601;-56
2021/04/21 00:33:54;;;;;;;17.87;16.07;;;14.70;95.20;;;15.44;47.17;101137.84;4903638;28;99209;-55
2021/04/21 00:36:22;;;;;;;16.80;15.00;;;14.60;95.20;;;15.40;47.35;101136.28;4899730;28;97799;-55
2021/04/21 00:38:51;;;;;;;24.83;22.30;;;14.60;95.30;;;15.36;47.42;101140.88;4905428;28;99268;-58
2021/04/21 00:41:41;;;;;;;20.10;18.07;;;14.50;95.60;;;15.39;47.38;101139.88;4881716;28;98540;-54
2021/04/21 00:44:25;;;;;;;18.80;16.90;;;14.60;95.40;;;15.37;47.51;101137.28;4896323;28;98411;-56
2021/04/21 00:47:03;;;;;;;24.27;20.17;;;14.60;95.00;;;15.33;47.59;101140.16;4882058;28;97917;-53
2021/04/21 00:50:10;;;;;;;12.93;11.63;;;14.40;95.40;;;15.29;47.73;101141.22;4901844;28;99183;-55
2021/04/21 00:52:55;;;;;;;8.97;8.17;;;14.40;95.70;;;15.33;47.40;101130.38;4848088;28;103302;-54
2021/04/21 00:55:48;;;;;;;9.07;8.17;;;14.60;95.30;;;15.46;47.18;101135.97;4865317;28;98278;-56
2021/04/21 00:58:51;;;;;;;8.97;8.17;;;14.90;94.30;;;15.57;46.76;101138.97;4881203;28;98284;-56
2021/04/21 01:01:17;;;;;;;17.03;15.33;;;15.10;93.70;;;15.59;46.83;101131.81;4899721;28;97177;-53
2021/04/21 01:03:44;;;;;;;10.80;9.80;;;15.00;93.70;;;15.61;46.81;101124.63;4901174;28;98842;-55
2021/04/21 01:06:19;;;;;;;12.03;10.73;;;15.00;94.20;;;15.67;46.67;101132.31;4883051;28;99122;-55
2021/04/21 01:08:51;;;;;;;9.20;8.27;;;15.10;93.80;;;15.72;46.48;101138.25;4902685;28;98679;-56
2021/04/21 01:11:42;;;;;;;13.93;12.47;;;15.20;93.70;;;15.80;46.49;101129.91;4884629;28;98180;-55
2021/04/21 01:14:16;;;;;;;12.27;11.17;;;15.30;93.10;;;15.77;46.49;101125.59;4906601;28;99259;-53
2021/04/21 01:16:45;;;;;;;8.40;7.67;;;15.20;93.50;;;15.80;46.53;101123.72;4900944;28;100239;-54
2021/04/21 01:19:39;;;;;;;19.17;17.10;;;15.20;93.70;;;15.87;46.43;101127.78;4904166;28;98365;-52
2021/04/21 01:22:21;;;;;;;20.00;17.97;;;15.40;93.30;;;15.85;46.33;101121.69;4881157;28;96873;-56
2021/04/21 01:25:16;;;;;;;24.83;21.93;;;15.30;93.30;;;15.80;46.09;101124.59;4894724;28;100265;-55
2021/04/21 01:28:06;;;;;;;16.13;14.47;;;15.20;93.40;;;15.68;46.77;101120.72;4893120;28;100921;-56
2021/04/21 01:30:36;;;;;;;14.33;12.83;;;14.90;94.10;;;15.63;46.95;101120.09;4903563;28;97211;-51
2021/04/21 01:33:09;;;;;;;26.10;18.60;;;14.90;94.20;;;15.60;46.94;101122.88;4906512;28;96946;-54
2021/04/21 01:35:37;;;;;;;25.53;22.43;;;14.80;94.40;;;15.57;46.89;101120.34;4913741;28;101416;-55
2021/04/21 01:38:04;;;;;;;18.57;16.17;;;14.80;94.30;;;15.56;46.83;101118.63;4896267;28;96720;-55
2021/04/21 01:40:37;;;;;;;15.63;14.03;;;14.80;94.20;;;15.56;46.65;101115.97;4882172;28;97136;-55
2021/04/21 01:43:13;;;;;;;10.57;9.53;;;14.90;93.80;;;15.52;46.79;101114.41;4907581;28;98302;-53
2021/04/21 01:45:40;;;;;;;19.83;17.77;;;14.80;94.10;;;15.50;46.81;101116.28;4879493;28;97648;-55
2021/04/21 01:48:17;;;;;;;20.47;18.00;;;14.80;93.60;;;15.44;46.93;101112.13;4903706;28;97378;-54
2021/04/21 01:50:43;;;;;;;17.17;15.47;;;14.60;94.40;;;15.39;47.10;101114.16;4898121;28;97190;-56
2021/04/21 01:53:24;;;;;;;12.00;10.83;;;14.50;94.90;;;15.42;47.29;101119.31;4905925;28;97026;-56
2021/04/21 01:56:02;;;;;;;24.83;22.17;;;14.70;94.80;;;15.43;47.22;101122.81;4898687;28;98756;-52
2021/04/21 01:58:42;;;;;;;15.77;14.07;;;14.70;93.80;;;15.36;47.15;101113.44;4891552;28;102436;-52
2021/04/21 02:01:24;;;;;;;14.63;13.23;;;14.50;94.50;;;15.32;47.56;101118.03;4890438;28;98895;-52
2021/04/21 02:04:01;;;;;;;17.23;14.80;;;14.50;94.80;;;15.30;47.31;101111.91;4901561;28;96991;-57
2021/04/21 02:06:55;;;;;;;11.93;10.83;;;14.50;95.00;;;15.35;47.10;101119.69;4892688;28;103716;-54
2021/04/21 02:09:58;;;;;;;16.90;14.80;;;14.70;94.50;;;15.37;47.04;101123.13;4907275;28;96844;-56
2021/04/21 02:12:42;;;;;;;11.30;10.10;;;14.60;93.90;;;15.38;47.22;101117.75;4888649;28;97362;-53
2021/04/21 02:15:17;;;;;;;11.37;10.27;;;14.70;94.50;;;15.37;47.33;101109.84;4893980;28;97955;-57
2021/04/21 02:18:03;;;;;;;17.43;15.73;;;14.70;94.10;;;15.39;47.31;101121.25;4897662;28;99587;-55
2021/04/21 02:20:43;;;;;;;15.30;13.70;;;14.60;93.90;;;15.36;47.04;101118.75;4893337;28;102326;-53
2021/04/21 02:23:42;;;;;;;14.43;12.93;;;14.60;94.00;;;15.37;46.99;101120.47;4889627;28;96775;-53
2021/04/21 02:26:31;;;;;;;10.83;9.73;;;14.60;94.10;;;15.37;47.41;101125.78;4902034;28;98600;-50
2021/04/21 02:29:15;;;;;;;9.60;8.67;;;14.70;94.50;;;15.45;47.15;101131.59;4913383;28;102507;-54
2021/04/21 02:31:58;;;;;;;9.23;8.33;;;14.90;94.00;;;15.58;46.67;101127.41;4878839;28;102220;-52
2021/04/21 02:34:47;;;;;;;16.97;14.43;;;15.20;93.10;;;15.71;46.64;101128.56;4879700;28;97637;-54
2021/04/21 02:37:23;;;;;;;10.20;9.20;;;15.40;92.20;;;15.81;46.42;101125.44;4887321;28;99939;-53
2021/04/21 02:40:22;;;;;;;9.83;8.87;;;15.60;92.20;;;15.95;45.91;101128.28;4877308;28;97479;-52
2021/04/21 02:43:20;;;;;;;9.97;9.07;;;15.70;92.00;;;16.09;45.59;101122.25;4892397;28;102155;-56
2021/04/21 02:46:41;;;;;;;13.90;12.40;;;15.90;91.60;;;16.09;45.68;101124.91;4893057;28;97361;-54
2021/04/21 02:49:19;;;;;;;20.47;18.37;;;15.80;91.00;;;15.94;45.91;101138.06;4899232;28;97504;-56
2021/04/21 02:51:56;;;;;;;21.03;18.43;;;15.40;92.20;;;15.75;46.18;101138.09;4915123;28;98552;-54
2021/04/21 02:54:54;;;;;;;16.40;14.80;;;14.90;93.10;;;15.62;46.53;101128.13;4909763;28;98242;-50
2021/04/21 02:57:50;;;;;;;12.03;10.83;;;14.70;93.90;;;15.52;47.01;101133.03;4885403;28;97153;-56
2021/04/21 03:00:32;;;;;;;11.63;10.60;;;14.70;93.80;;;15.40;46.99;101130.97;4890662;28;97232;-54
2021/04/21 03:03:44;;;;;;;19.13;17.13;;;14.50;94.10;;;15.35;47.15;101125.88;4896557;28;97651;-54
2021/04/21 03:06:16;;;;;;;11.20;10.17;;;14.50;94.30;;;15.32;47.42;101133.09;4889214;28;104814;-52
2021/04/21 03:08:56;;;;;;;10.60;9.60;;;14.50;94.60;;;15.31;47.46;101136.69;4913501;28;96974;-55
2021/04/21 03:11:27;;;;;;;13.67;12.27;;;14.60;94.80;;;15.34;47.30;101133.91;4892634;28;98965;-56
2021/04/21 03:14:02;;;;;;;17.63;15.83;;;14.60;94.30;;;15.30;47.36;101133.19;4891768;28;97169;-55
2021/04/21 03:16:37;;;;;;;20.33;18.13;;;14.50;94.50;;;15.27;47.59;101135.13;4893870;28;99482;-55
2021/04/21 03:19:08;;;;;;;21.43;19.17;;;14.40;94.90;;;15.26;47.34;101138.72;4896488;28;97353;-50
2021/04/21 03:21:46;;;;;;;21.00;19.00;;;14.40;94.90;;;15.26;47.45;101144.03;4890966;28;96870;-56
2021/04/21 03:24:19;;;;;;;17.70;15.83;;;14.40;94.70;;;15.24;47.48;101135.28;4891574;28;99548;-52
2021/04/21 03:26:50;;;;;;;19.50;17.40;;;14.40;94.90;;;15.23;47.72;101136.22;4896575;28;98811;-52
2021/04/21 03:29:25;;;;;;;21.03;18.67;;;14.40;95.00;;;15.22;47.50;101140.69;4902967;28;103802;-52
2021/04/21 03:31:54;;;;;;;11.97;10.87;;;14.40;95.10;;;15.18;47.95;101142.59;4898554;28;97557;-55
2021/04/21 03:34:22;;;;;;;11.10;10.10;;;14.30;95.20;;;15.18;47.73;101137.28;4885936;28;98309;-53
2021/04/21 03:36:50;;;;;;;9.57;8.77;;;14.40;95.70;;;15.23;47.49;101138.88;4914364;28;98288;-50
2021/04/21 03:39:16;;;;;;;16.80;15.20;;;14.60;95.20;;;15.32;47.44;101133.09;4906728;28;98015;-53
2021/04/21 03:41:42;;;;;;;19.33;17.37;;;14.70;94.60;;;15.36;47.48;101124.06;4902713;28;98261;-56
2021/04/21 03:44:08;;;;;;;22.63;20.20;;;14.80;94.30;;;15.39;47.10;101129.25;4909259;28;97391;-56
2021/04/21 03:46:35;;;;;;;21.00;18.67;;;14.80;94.50;;;15.39;47.05;101130.09;4885872;28;114847;-51
2021/04/21 03:49:02;;;;;;;15.80;14.30;;;14.80;94.20;;;15.40;47.07;101126.50;4898548;28;97040;-53
2021/04/21 03:51:29;;;;;;;16.67;15.07;;;14.80;94.40;;;15.39;47.18;101126.56;4893779;28;98071;-53
2021/04/21 03:53:56;;;;;;;13.70;12.27;;;14.70;94.50;;;15.40;47.25;101128.28;4893992;28;99056;-51
2021/04/21 03:56:25;;;;;;;12.63;11.47;;;14.70;94.50;;;15.40;47.14;101126.50;4891348;28;98169;-54
2021/04/21 03:58:54;;;;;;;16.57;14.83;;;14.70;94.60;;;15.41;47.10;101127.38;4915593;28;97476;-52
2021/04/21 04:01:26;;;;;;;24.47;21.63;;;14.70;94.80;;;15.40;47.23;101133.63;4893498;28;97305;-56
2021/04/21 04:03:56;;;;;;;24.60;22.07;;;14.60;94.70;;;15.36;47.26;101132.91;4914123;28;98771;-50
2021/04/21 04:06:44;;;;;;;26.70;23.27;;;14.60;94.80;;;15.34;47.50;101139.25;4891895;28;97342;-52
2021/04/21 04:09:13;;;;;;;14.80;13.33;;;14.50;94.60;;;15.30;47.68;101140.28;4879638;28;96979;-53
2021/04/21 04:11:45;;;;;;;15.97;14.37;;;14.50;94.90;;;15.31;47.44;101142.00;4902045;28;96728;-54
2021/04/21 04:14:23;;;;;;;12.77;11.23;;;14.50;95.10;;;15.34;47.64;101136.59;4891911;28;97714;-55
2021/04/21 04:17:02;;;;;;;18.03;16.33;;;14.60;95.20;;;15.37;47.40;101137.28;4913155;28;99068;-53
2021/04/21 04:19:31;;;;;;;14.00;12.53;;;14.70;95.20;;;15.37;47.46;101139.09;4893890;28;97435;-50
2021/04/21 04:22:03;;;;;;;14.73;13.23;;;14.70;95.30;;;15.37;47.62;101141.75;4902962;28;96752;-56
2021/04/21 04:24:50;;;;;;;9.93;9.00;;;14.60;95.80;;;15.41;47.20;101143.31;4896700;28;98925;-52
2021/04/21 04:27:24;;;;;;;21.93;19.77;;;14.70;95.50;;;15.47;47.43;101149.19;4892498;28;97234;-55
2021/04/21 04:29:52;;;;;;;27.83;23.97;;;14.90;95.30;;;15.45;47.57;101145.75;4898405;28;96452;-53
2021/04/21 04:32:21;;;;;;;9.93;8.97;;;14.80;95.70;;;15.47;47.42;101146.53;4897339;28;97359;-52
2021/04/21 04:34:55;;;;;;;9.60;8.70;;;14.80;95.50;;;15.51;47.10;101133.09;4914778;28;99741;-54
2021/04/21 04:37:24;;;;;;;9.60;8.70;;;14.90;95.40;;;15.54;47.19;101141.78;4907396;28;97283;-49
2021/04/21 04:39:52;;;;;;;8.23;7.53;;;15.00;95.40;;;15.60;47.05;101149.47;4907408;28;96774;-52
2021/04/21 04:42:19;;;;;;;9.00;8.10;;;15.10;94.60;;;15.67;46.67;101145.59;4875358;28;96895;-54
2021/04/21 04:44:48;;;;;;;9.47;8.53;;;15.30;93.80;;;15.76;46.40;101150.44;4903091;28;100560;-55
2021/04/21 04:47:25;;;;;;;12.57;11.37;;;15.50;93.30;;;15.84;46.70;101154.53;4911298;28;97860;-56
2021/04/21 04:50:20;;;;;;;8.73;7.93;;;15.50;94.10;;;15.84;46.22;101152.75;4917778;28;96956;-54
2021/04/21 04:52:55;;;;;;;13.90;12.47;;;15.40;94.20;;;15.83;46.56;101150.16;4913489;28;97287;-55
2021/04/21 04:55:24;;;;;;;8.40;7.60;;;15.40;94.30;;;15.84;46.46;101157.22;4890908;28;97727;-55
2021/04/21 04:57:52;;;;;;;8.37;7.67;;;15.40;93.90;;;15.87;46.45;101146.41;4892538;28;99161;-53
2021/04/21 05:00:25;;;;;;;9.67;8.77;;;15.40;94.10;;;15.90;46.00;101149.78;4911345;28;97408;-53
2021/04/21 05:03:22;;;;;;;8.23;7.53;;;15.50;93.80;;;16.02;45.97;101158.94;4895753;28;97095;-51
2021/04/21 05:05:55;;;;;;;7.87;7.00;;;15.70;92.50;;;16.09;45.58;101157.72;4906898;28;103912;-54
2021/04/21 05:08:28;;;;;;;7.47;6.77;;;15.80;92.10;;;16.14;45.55;101154.81;4906691;28;98163;-52
2021/04/21 05:11:04;;;;;;;8.00;7.30;;;15.90;92.00;;;16.22;45.53;101158.81;4910209;28;97249;-53
2021/04/21 05:13:40;;;;;;;10.80;9.80;;;16.00;92.00;;;16.28;45.23;101168.28;4888411;28;97532;-53
2021/04/21 05:16:06;;;;;;;8.20;7.43;;;16.10;91.60;;;16.26;45.47;101164.84;4912515;28;98484;-57
2021/04/21 05:18:55;;;;;;;27.07;24.30;;;16.00;92.30;;;16.26;45.37;101164.84;4905145;28;102274;-52
2021/04/21 05:21:49;;;;;;;11.70;10.50;;;15.90;93.20;;;16.19;45.57;101182.03;4898027;28;98936;-51
2021/04/21 05:24:39;;;;;;;13.83;12.53;;;15.70;93.40;;;16.13;45.78;101180.56;4890402;28;98370;-54
2021/04/21 05:27:26;;;;;;;9.17;8.27;;;15.60;94.10;;;16.10;45.82;101180.72;4913360;28;99634;-55
2021/04/21 05:30:45;;;;;;;7.90;7.20;;;15.50;93.70;;;16.15;45.67;101184.00;4907226;28;101203;-51
2021/04/21 05:34:07;;;;;;;8.10;7.30;;;15.70;92.70;;;16.26;45.17;101181.66;4905361;28;97272;-56
2021/04/21 05:37:05;;;;;;;21.13;18.93;;;16.00;91.80;;;16.25;45.59;101179.94;4896966;28;97709;-50
2021/04/21 05:39:42;;;;;;;8.33;7.53;;;15.90;92.80;;;16.23;45.39;101192.47;4907930;28;98012;-54
2021/04/21 05:42:38;;;;;;;20.20;18.10;;;15.80;93.00;;;16.22;45.44;101184.56;4910275;28;97939;-54
2021/04/21 05:45:53;;;;;;;17.83;16.07;;;15.70;93.60;;;16.14;45.68;101195.59;4910588;28;97349;-52
2021/04/21 05:48:46;;;;;;;13.87;12.43;;;15.60;93.80;;;16.14;45.69;101190.25;4891859;28;97155;-54
2021/04/21 05:51:39;;;;;;;13.37;12.10;;;15.70;93.30;;;16.07;45.94;101191.53;4908665;28;97335;-53
2021/04/21 05:54:44;;;;;;;14.60;13.27;;;15.50;93.80;;;16.08;45.74;101190.59;4894276;28;98998;-56
2021/04/21 05:58:06;;;;;;;8.30;7.60;;;15.60;93.30;;;16.11;45.60;101187.75;4908266;28;96876;-52
2021/04/21 06:00:38;;;;;;;8.20;7.40;;;15.60;93.00;;;16.15;45.60;101189.31;4907420;28;97935;-53
2021/04/21 06:03:05;;;;;;;11.60;10.33;;;15.80;92.60;;;16.15;45.59;101197.31;4913393;28;101069;-53
2021/04/21 06:05:31;;;;;;;11.67;10.47;;;15.70;93.00;;;16.19;45.38;101195.34;4886009;28;110391;-54
2021/04/21 06:08:10;;;;;;;34.97;30.67;;;15.80;92.90;;;16.17;45.85;101206.06;4905184;28;97736;-55
2021/04/21 06:10:36;;;;;;;10.20;9.20;;;15.70;93.60;;;16.15;45.45;101202.63;4892508;28;98204;-53
2021/04/21 06:13:02;;;;;;;15.53;12.87;;;15.60;93.60;;;16.17;45.77;101203.41;4916301;28;99099;-55
2021/04/21 06:15:33;;;;;;;25.43;22.90;;;15.70;93.30;;;16.18;45.78;101202.47;4896377;28;98131;-53
2021/04/21 06:18:02;;;;;;;18.47;16.57;;;15.70;93.20;;;16.22;45.70;101212.03;4889516;28;97399;-54
2021/04/21 06:20:42;;;;;;;15.10;13.60;;;15.80;93.00;;;16.22;45.50;101217.38;4889434;28;97765;-53
2021/04/21 06:23:26;;;;;;;16.97;15.03;;;15.70;93.20;;;16.23;45.44;101223.56;4895865;28;97646;-55
2021/04/21 06:26:03;;;;;;;8.63;7.83;;;15.70;93.50;;;16.26;45.67;101218.94;4895943;28;99782;-54
2021/04/21 06:28:30;;;;;;;10.10;9.10;;;15.80;92.80;;;16.31;45.33;101219.56;4914287;28;97100;-53
2021/04/21 06:31:11;;;;;;;8.33;7.53;;;16.00;92.10;;;16.44;45.14;101210.94;4909513;28;96993;-53
2021/04/21 06:33:42;;;;;;;9.93;9.03;;;16.20;91.50;;;16.56;44.71;101218.31;4911585;28;102633;-52
2021/04/21 06:36:10;;;;;;;7.17;6.50;;;16.40;90.80;;;16.68;44.38;101225.69;4906747;28;97464;-54
2021/04/21 06:38:38;;;;;;;7.77;7.00;;;16.60;90.50;;;16.78;44.15;101218.97;4894840;28;102345;-55
2021/04/21 06:41:04;;;;;;;7.30;6.70;;;16.80;90.20;;;16.90;44.13;101223.63;4913996;28;96717;-52
2021/04/21 06:43:37;;;;;;;7.13;6.53;;;16.90;89.90;;;16.95;43.63;101218.06;4906853;28;97633;-54
2021/04/21 06:46:10;;;;;;;8.57;7.77;;;17.00;90.00;;;17.00;43.69;101226.66;4881029;28;97252;-56
2021/04/21 06:48:38;;;;;;;13.00;11.70;;;17.00;89.10;;;17.01;43.61;101217.72;4906759;28;98908;-51
2021/04/21 06:51:18;;;;;;;6.90;6.20;;;17.00;89.30;;;17.03;43.61;101221.16;4894247;28;96941;-56
2021/04/21 06:53:47;;;;;;;7.27;6.63;;;17.00;89.40;;;17.08;43.72;101216.47;4890001;28;105086;-54
2021/04/21 06:56:15;;;;;;;13.53;12.13;;;17.10;88.90;;;17.13;43.36;101224.19;4892934;28;97485;-54
2021/04/21 06:58:41;;;;;;;19.33;17.33;;;17.20;88.40;;;17.11;43.43;101229.63;4894445;28;97637;-52
2021/04/21 07:01:10;;;;;;;26.63;23.73;;;17.10;89.80;;;17.01;43.61;101227.53;4904783;28;98269;-61
2021/04/21 07:03:36;;;;;;;38.47;34.27;;;16.90;90.90;;;16.86;44.28;101227.38;4908883;28;100487;-52
2021/04/21 07:06:03;;;;;;;38.07;34.03;;;16.60;91.90;;;16.77;44.17;101230.53;4892090;28;98529;-57
2021/04/21 07:08:37;;;;;;;8.17;7.47;;;16.40;91.90;;;16.73;44.18;101234.31;4899684;28;98130;-56
2021/04/21 07:11:07;;;;;;;37.80;32.80;;;16.40;91.60;;;16.66;44.61;101238.22;4890575;28;97213;-55
2021/04/21 07:13:37;;;;;;;24.40;21.80;;;16.30;92.20;;;16.58;44.68;101235.06;4883190;28;103818;-55
2021/04/21 07:16:13;;;;;;;28.07;25.17;;;16.10;92.70;;;16.54;45.03;101233.50;4908633;28;99639;-56
2021/04/21 07:18:53;;;;;;;22.40;20.23;;;16.10;92.90;;;16.51;45.01;101239.00;4870786;28;97263;-56
2021/04/21 07:21:20;;;;;;;40.53;36.30;;;16.10;93.10;;;16.42;45.29;101234.13;4889296;28;97551;-56
2021/04/21 07:23:58;;;;;;;36.17;31.80;;;15.90;93.70;;;16.33;45.64;101232.78;4890217;28;98499;-55
2021/04/21 07:26:34;;;;;;;13.03;11.73;;;15.80;93.50;;;16.34;45.27;101238.03;4907057;28;98193;-55
2021/04/21 07:29:00;;;;;;;43.40;36.90;;;15.90;93.20;;;16.29;45.41;101242.72;4904632;28;97486;-53
2021/04/21 07:31:26;;;;;;;20.50;18.33;;;15.80;93.80;;;16.22;45.69;101237.81;4898959;28;98189;-55
2021/04/21 07:33:52;;;;;;;10.90;9.80;;;15.70;93.50;;;16.25;45.70;101233.19;4882428;28;100520;-52
2021/04/21 07:36:18;;;;;;;23.63;19.03;;;15.80;93.30;;;16.27;45.73;101233.97;4912437;28;96897;-56
2021/04/21 07:39:10;;;;;;;9.80;8.93;;;15.90;93.60;;;16.31;45.65;101238.19;4912904;28;99048;-53
2021/04/21 07:41:42;;;;;;;30.40;27.30;;;15.90;92.90;;;16.36;45.41;101230.00;4888506;28;97106;-57
2021/04/21 07:44:50;;;;;;;43.40;38.50;;;16.10;93.00;;;16.44;45.44;101234.91;4910257;28;97860;-55
2021/04/21 07:47:18;;;;;;;8.80;8.00;;;16.10;93.20;;;16.50;45.11;101237.28;4911882;28;100278;-54
2021/04/21 07:49:53;;;;;;;47.27;42.17;;;16.20;91.40;;;16.41;46.21;101227.09;4902793;28;97093;-52
2021/04/21 07:52:33;;;;;;;48.67;43.30;;;16.20;93.60;;;16.50;45.35;101223.97;4894377;28;97114;-55
2021/04/21 07:55:16;;;;;;;9.27;8.37;;;16.20;93.10;;;16.57;44.85;101228.00;4914192;28;98179;-54
2021/04/21 07:58:01;;;;;;;8.93;8.13;;;16.30;91.70;;;16.59;45.68;101224.31;4889449;28;100015;-54
2021/04/21 08:00:30;;;;;;;50.57;44.70;;;16.40;91.60;;;16.51;45.50;101229.19;4910203;28;102092;-55
2021/04/21 08:02:57;;;;;;;51.30;43.70;;;16.20;93.40;;;16.61;44.72;101232.22;4909862;28;97087;-56
2021/04/21 08:05:23;;;;;;;11.90;10.20;;;16.30;92.00;;;16.63;44.76;101233.00;4903707;28;97611;-53
2021/04/21 08:08:03;;;;;;;50.73;43.13;;;16.40;91.30;;;16.55;48.02;101240.56;4888185;28;97041;-55
2021/04/21 08:10:34;;;;;;;52.03;45.90;;;16.30;93.20;;;16.36;46.01;101230.84;4896135;28;97124;-51
2021/04/21 08:13:01;;;;;;;54.00;45.40;;;16.10;94.00;;;16.21;48.49;101233.41;4912463;28;98040;-55
2021/04/21 08:15:36;;;;;;;56.07;45.47;;;15.90;94.60;;;16.15;48.37;101231.03;4905116;28;99015;-52
2021/04/21 08:18:12;;;;;;;60.60;46.80;;;15.70;95.60;;;16.29;49.11;101234.75;4893955;28;98712;-56
2021/04/21 08:20:53;;;;;;;57.33;45.30;;;16.00;94.50;;;16.21;48.54;101234.28;4888883;28;97267;-53
2021/04/21 08:23:21;;;;;;;56.80;46.50;;;15.90;95.20;;;16.21;47.87;101236.94;4911761;28;97030;-53
2021/04/21 08:25:48;;;;;;;15.27;13.67;;;15.90;95.20;;;16.25;46.32;101235.84;4897674;28;96736;-53
2021/04/21 08:28:14;;;;;;;12.70;11.50;;;15.90;93.40;;;16.41;45.68;101232.41;4884505;28;99856;-55
2021/04/21 08:30:54;;;;;;;11.53;10.43;;;16.20;92.00;;;16.59;45.12;101234.97;4891283;28;99608;-57
2021/04/21 08:33:20;;;;;;;51.67;43.50;;;16.50;91.40;;;16.58;47.99;101245.72;4912385;28;97079;-51
2021/04/21 08:35:46;;;;;;;10.80;9.10;;;16.50;93.00;;;16.69;44.85;101231.88;4909453;28;97330;-53
2021/04/21 08:38:12;;;;;;;11.77;9.83;;;16.60;91.00;;;16.76;45.09;101234.13;4893525;28;100328;-52
2021/04/21 08:40:40;;;;;;;49.20;42.23;;;16.70;91.30;;;16.84;47.61;101231.94;4907808;28;98642;-55
2021/04/21 08:43:08;;;;;;;52.77;43.67;;;16.80;93.30;;;16.82;46.35;101233.84;4902417;28;97915;-52
2021/04/21 08:45:36;;;;;;;51.57;42.77;;;16.70;93.50;;;16.83;47.60;101234.69;4895751;28;102283;-56
2021/04/21 08:48:04;;;;;;;60.97;43.57;;;16.80;93.10;;;16.78;46.59;101232.28;4913133;28;98893;-52
2021/04/21 08:50:36;;;;;;;11.30;10.23;;;16.60;93.40;;;16.84;44.62;101239.06;4890144;28;97334;-56
2021/04/21 08:53:06;;;;;;;49.53;42.43;;;16.60;91.50;;;16.77;45.89;101241.19;4912223;28;102073;-54
2021/04/21 08:55:33;;;;;;;54.50;43.20;;;16.60;93.90;;;16.60;48.80;101249.16;4895863;28;103229;-56
2021/04/21 08:58:01;;;;;;;50.23;43.77;;;16.40;93.90;;;16.60;46.42;101249.16;4914567;28;97369;-53
2021/04/21 09:00:27;;;;;;;52.83;44.07;;;16.30;93.90;;;16.55;49.00;101253.88;4904031;28;99856;-50
2021/04/21 09:02:53;;;;;;;50.93;42.73;;;16.40;94.40;;;16.44;47.98;101254.41;4899188;28;98910;-54
2021/04/21 09:05:20;;;;;;;50.17;42.40;;;16.20;94.60;;;16.40;49.76;101255.50;4896808;28;100002;-52
2021/04/21 09:07:46;;;;;;;58.37;44.57;;;16.20;94.60;;;16.41;46.20;101248.38;4907731;28;96949;-53
2021/04/21 09:10:15;;;;;;;51.57;40.33;;;16.10;93.70;;;16.53;45.54;101256.63;4910375;28;97259;-55
2021/04/21 09:12:41;;;;;;;48.40;40.90;;;16.40;93.20;;;16.62;46.03;101247.28;4898571;28;97207;-54
2021/04/21 09:15:10;;;;;;;50.07;42.30;;;16.50;92.60;;;16.65;46.17;101260.47;4892583;28;99494;-57
2021/04/21 09:17:50;;;;;;;47.80;41.23;;;16.60;92.20;;;16.70;45.32;101255.78;4889700;28;104954;-52
2021/04/21 09:20:20;;;;;;;34.67;30.97;;;16.60;91.50;;;16.66;45.77;101264.84;4894447;28;99954;-55
2021/04/21 09:23:11;;;;;;;47.73;42.13;;;16.50;92.20;;;16.73;45.05;101250.28;4895037;28;97477;-56
2021/04/21 09:25:53;;;;;;;48.80;41.20;;;16.60;91.60;;;16.64;48.18;101256.06;4896796;28;102115;-52
2021/04/21 09:28:21;;;;;;;50.33;42.73;;;16.60;93.30;;;16.53;47.93;101258.41;4888498;28;97044;-52
2021/04/21 09:30:57;;;;;;;51.47;44.00;;;16.40;93.60;;;16.49;48.89;101256.81;4907963;28;97375;-56
2021/04/21 09:33:27;;;;;;;50.07;44.27;;;16.30;93.90;;;16.39;49.40;101260.91;4876921;28;98678;-57
2021/04/21 09:35:53;;;;;;;52.03;43.03;;;16.20;94.30;;;16.33;49.01;101262.91;4896808;28;97097;-55
2021/04/21 09:38:28;;;;;;;50.27;41.90;;;16.10;94.00;;;16.37;48.29;101266.31;4905940;28;99869;-57
2021/04/21 09:41:01;;;;;;;52.33;42.30;;;16.20;94.10;;;16.29;49.40;101266.69;4894828;28;97115;-57
2021/04/21 09:43:36;;;;;;;52.73;44.07;;;16.10;94.30;;;16.27;48.46;101270.38;4877009;28;97442;-56
2021/04/21 09:46:17;;;;;;;59.13;44.50;;;16.10;94.20;;;16.29;47.00;101269.34;4902143;28;97165;-55
2021/04/21 09:48:47;;;;;;;49.80;43.07;;;16.10;94.30;;;16.36;48.09;101268.13;4894352;28;99843;-57
2021/04/21 09:51:16;;;;;;;54.87;43.77;;;16.20;94.10;;;16.49;46.35;101262.16;4891563;28;98312;-54
2021/04/21 09:53:47;;;;;;;50.40;44.33;;;16.30;93.70;;;16.59;48.80;101274.06;4895556;28;97616;-56
2021/04/21 09:56:21;;;;;;;56.80;45.37;;;16.50;93.80;;;16.49;49.71;101268.38;4906706;28;97430;-52
2021/04/21 09:58:54;;;;;;;15.87;14.33;;;16.40;94.40;;;16.59;45.98;101268.75;4879044;28;99679;-54
2021/04/21 10:01:36;;;;;;;50.57;42.73;;;16.40;92.50;;;16.67;47.49;101271.91;4892670;28;97614;-52
2021/04/21 10:04:27;;;;;;;52.77;41.87;;;16.60;92.50;;;16.69;47.07;101264.72;4896484;28;103871;-56
2021/04/21 10:07:02;;;;;;;52.67;42.43;;;16.60;92.70;;;16.77;45.41;101254.50;4893257;28;101845;-54
2021/04/21 10:09:38;;;;;;;56.97;47.43;;;16.70;91.70;;;16.80;48.49;101257.03;4882789;28;97341;-55
2021/04/21 10:12:20;;;;;;;54.70;46.10;;;16.80;93.60;;;16.90;45.27;101254.72;4899140;28;97503;-50
2021/04/21 10:15:08;;;;;;;58.40;45.73;;;16.90;91.80;;;16.82;48.13;101255.16;4908733;28;97311;-50
2021/04/21 10:17:43;;;;;;;52.63;44.00;;;16.80;93.60;;;16.88;45.41;101254.81;4887912;28;102324;-54
2021/04/21 10:20:17;;;;;;;51.63;45.67;;;16.80;91.30;;;16.93;47.56;101247.47;4904694;28;98709;-57
2021/04/21 10:22:45;;;;;;;51.67;44.77;;;16.90;92.50;;;16.94;49.12;101249.19;4897367;28;99692;-53
2021/04/21 10:25:14;;;;;;;59.83;47.17;;;16.90;93.40;;;17.00;45.71;101247.13;4893453;28;97949;-55
2021/04/21 10:27:40;;;;;;;50.77;45.07;;;17.00;92.80;;;16.90;48.94;101247.59;4913563;28;97013;-52
2021/04/21 10:30:10;;;;;;;52.30;42.50;;;16.90;93.70;;;16.93;46.40;101250.13;4890783;28;99151;-53
2021/04/21 10:32:37;;;;;;;52.10;43.73;;;16.80;92.20;;;17.01;45.77;101232.84;4893019;28;96898;-53
2021/04/21 10:35:04;;;;;;;54.43;46.70;;;17.00;92.10;;;17.05;45.90;101250.38;4909724;28;97289;-53
2021/04/21 10:37:35;;;;;;;59.50;48.23;;;17.00;92.60;;;17.15;46.17;101246.31;4890658;28;97754;-54